Ogre, Latvia

73.9°F / 23.3°C
Clear
Heat Index: 77°F / 25°C
Humidity: 36%
Dew Point: 46°F / 8°C
Wind: SW at 9.3 mph / 15.0 km/h
Wind Gust: 11.2 mph / 18.0 km/h
Pressure: 30.36 in / 1028 hPa (Steady)
Visibility: -
Clouds:
Yesterday's Maximum: 73.8°F / 23.2°C
Yesterday's Minimum: 38.1°F / 3.4°C
Sunrise:4:53 AM EEST
Sunset:9:43 PM EEST
Moon Rise:11:13 AM EEST
Moon Set:2:24 AM EEST
Moon Phase Waxing Crescent
Marine Forecast & Tides
NOAA Weather Radio
No local feed.
METAR EVRA 211050Z 13007KT 070V170 CAVOK 21/07 Q1028 NOSIG
As of: 1:57 PM EEST on May 21, 2018
Observed at: Salaspils parish, Vejsturi, Latvia

View Station's History

No Yes

Local Satellite

Current Satellite Forecast
Region Default Local
No Yes

View Full Screen WunderMap

Forecast

Current Satellite Forecast

Features

Weather Apps

WunderRadio

Weather Underground Apps
Check out our wide variety of mobile and setup applications.

Weather Underground Applications

Top of Page

© Copyright 2018
The Weather Company, LLC